sensor_id;sensor_type;location;lat;lon;timestamp;P1;durP1;ratioP1;P2;durP2;ratioP2
40248;SDS011;25969;49.970;11.062;2023-04-24T04:08:25;1.45;;;0.77;;
40248;SDS011;25969;49.970;11.062;2023-04-24T04:28:29;2.05;;;0.60;;
40248;SDS011;25969;49.970;11.062;2023-04-24T04:38:33;1.13;;;0.80;;
40248;SDS011;25969;49.970;11.062;2023-04-24T04:49:06;1.58;;;0.60;;
40248;SDS011;25969;49.970;11.062;2023-04-24T04:59:09;0.40;;;0.32;;
40248;SDS011;25969;49.970;11.062;2023-04-24T05:09:12;1.05;;;0.50;;
40248;SDS011;25969;49.970;11.062;2023-04-24T05:19:22;0.98;;;0.50;;
40248;SDS011;25969;49.970;11.062;2023-04-24T05:29:23;4.43;;;0.73;;
40248;SDS011;25969;49.970;11.062;2023-04-24T05:39:24;1.63;;;0.50;;
40248;SDS011;25969;49.970;11.062;2023-04-24T05:49:26;1.37;;;0.53;;
40248;SDS011;25969;49.970;11.062;2023-04-24T05:59:27;1.15;;;0.40;;
40248;SDS011;25969;49.970;11.062;2023-04-24T06:09:28;3.33;;;0.70;;
40248;SDS011;25969;49.970;11.062;2023-04-24T06:19:29;1.33;;;0.50;;
40248;SDS011;25969;49.970;11.062;2023-04-24T06:29:30;3.57;;;1.10;;
40248;SDS011;25969;49.970;11.062;2023-04-24T06:39:32;2.17;;;0.70;;
40248;SDS011;25969;49.970;11.062;2023-04-24T06:49:32;0.90;;;0.40;;
40248;SDS011;25969;49.970;11.062;2023-04-24T06:59:33;1.40;;;0.57;;
40248;SDS011;25969;49.970;11.062;2023-04-24T07:09:34;1.10;;;0.50;;
40248;SDS011;25969;49.970;11.062;2023-04-24T07:19:36;0.65;;;0.40;;
40248;SDS011;25969;49.970;11.062;2023-04-24T07:29:37;1.73;;;1.10;;
40248;SDS011;25969;49.970;11.062;2023-04-24T07:39:38;1.17;;;0.60;;
40248;SDS011;25969;49.970;11.062;2023-04-24T07:49:39;1.20;;;0.80;;
40248;SDS011;25969;49.970;11.062;2023-04-24T07:59:40;2.17;;;0.60;;
40248;SDS011;25969;49.970;11.062;2023-04-24T08:09:40;2.13;;;0.93;;
40248;SDS011;25969;49.970;11.062;2023-04-24T08:19:41;1.67;;;0.90;;
40248;SDS011;25969;49.970;11.062;2023-04-24T08:29:48;2.15;;;1.20;;
40248;SDS011;25969;49.970;11.062;2023-04-24T08:39:49;2.37;;;1.10;;
40248;SDS011;25969;49.970;11.062;2023-04-24T08:49:51;5.60;;;1.10;;
40248;SDS011;25969;49.970;11.062;2023-04-24T08:59:52;2.70;;;1.20;;
40248;SDS011;25969;49.970;11.062;2023-04-24T09:19:55;1.52;;;1.00;;
40248;SDS011;25969;49.970;11.062;2023-04-24T09:29:56;1.13;;;0.93;;
40248;SDS011;25969;49.970;11.062;2023-04-24T09:40:10;2.53;;;0.90;;
40248;SDS011;25969;49.970;11.062;2023-04-24T09:50:13;3.53;;;0.95;;
40248;SDS011;25969;49.970;11.062;2023-04-24T10:00:17;2.30;;;1.10;;
40248;SDS011;25969;49.970;11.062;2023-04-24T10:10:22;1.40;;;1.25;;
40248;SDS011;25969;49.970;11.062;2023-04-24T10:20:24;3.63;;;1.10;;
40248;SDS011;25969;49.970;11.062;2023-04-24T10:30:27;2.45;;;1.25;;
40248;SDS011;25969;49.970;11.062;2023-04-24T10:40:35;2.00;;;0.60;;
40248;SDS011;25969;49.970;11.062;2023-04-24T10:50:46;1.33;;;0.60;;
40248;SDS011;25969;49.970;11.062;2023-04-24T11:00:56;1.10;;;0.60;;
40248;SDS011;25969;49.970;11.062;2023-04-24T11:11:02;1.33;;;0.70;;
40248;SDS011;25969;49.970;11.062;2023-04-24T11:21:16;2.22;;;0.90;;
40248;SDS011;25969;49.970;11.062;2023-04-24T11:31:36;2.33;;;1.10;;
40248;SDS011;25969;49.970;11.062;2023-04-24T11:41:39;2.20;;;0.73;;
40248;SDS011;25969;49.970;11.062;2023-04-24T11:51:40;1.77;;;1.20;;
40248;SDS011;25969;49.970;11.062;2023-04-24T12:01:46;1.20;;;1.00;;
40248;SDS011;25969;49.970;11.062;2023-04-24T12:11:55;3.72;;;1.08;;
40248;SDS011;25969;49.970;11.062;2023-04-24T12:22:00;2.75;;;1.35;;
40248;SDS011;25969;49.970;11.062;2023-04-24T12:32:02;1.77;;;0.82;;
40248;SDS011;25969;49.970;11.062;2023-04-24T12:42:03;2.07;;;1.40;;
40248;SDS011;25969;49.970;11.062;2023-04-24T12:52:04;1.53;;;1.27;;
40248;SDS011;25969;49.970;11.062;2023-04-24T13:02:05;6.00;;;1.93;;
40248;SDS011;25969;49.970;11.062;2023-04-24T13:12:07;2.78;;;1.63;;
40248;SDS011;25969;49.970;11.062;2023-04-24T13:22:11;3.90;;;1.42;;
40248;SDS011;25969;49.970;11.062;2023-04-24T13:32:12;2.47;;;1.48;;
40248;SDS011;25969;49.970;11.062;2023-04-24T13:42:13;1.17;;;0.80;;
40248;SDS011;25969;49.970;11.062;2023-04-24T13:52:14;2.77;;;1.20;;
40248;SDS011;25969;49.970;11.062;2023-04-24T14:02:15;2.30;;;1.30;;
40248;SDS011;25969;49.970;11.062;2023-04-24T14:12:16;3.33;;;1.97;;
40248;SDS011;25969;49.970;11.062;2023-04-24T14:22:19;3.03;;;1.33;;
40248;SDS011;25969;49.970;11.062;2023-04-24T14:32:20;2.90;;;1.80;;
40248;SDS011;25969;49.970;11.062;2023-04-24T14:42:23;5.07;;;2.25;;
40248;SDS011;25969;49.970;11.062;2023-04-24T14:52:24;6.73;;;4.17;;
40248;SDS011;25969;49.970;11.062;2023-04-24T15:02:25;6.60;;;4.45;;
40248;SDS011;25969;49.970;11.062;2023-04-24T15:12:26;6.13;;;2.30;;
40248;SDS011;25969;49.970;11.062;2023-04-24T15:22:26;6.73;;;4.83;;
40248;SDS011;25969;49.970;11.062;2023-04-24T15:32:27;7.33;;;5.13;;
40248;SDS011;25969;49.970;11.062;2023-04-24T15:42:28;4.47;;;1.97;;
40248;SDS011;25969;49.970;11.062;2023-04-24T15:52:32;2.17;;;1.70;;
40248;SDS011;25969;49.970;11.062;2023-04-24T16:02:32;3.63;;;1.80;;
40248;SDS011;25969;49.970;11.062;2023-04-24T16:12:33;9.10;;;3.80;;
40248;SDS011;25969;49.970;11.062;2023-04-24T16:22:34;4.27;;;3.20;;
40248;SDS011;25969;49.970;11.062;2023-04-24T16:32:35;8.32;;;4.68;;
40248;SDS011;25969;49.970;11.062;2023-04-24T16:42:36;8.73;;;5.13;;
40248;SDS011;25969;49.970;11.062;2023-04-24T16:52:38;4.85;;;3.15;;
40248;SDS011;25969;49.970;11.062;2023-04-24T17:02:38;6.70;;;3.57;;
40248;SDS011;25969;49.970;11.062;2023-04-24T17:12:39;5.50;;;3.20;;
40248;SDS011;25969;49.970;11.062;2023-04-24T17:22:40;3.53;;;2.78;;
40248;SDS011;25969;49.970;11.062;2023-04-24T17:32:41;11.20;;;5.35;;
40248;SDS011;25969;49.970;11.062;2023-04-24T17:42:42;9.30;;;4.18;;
40248;SDS011;25969;49.970;11.062;2023-04-24T17:52:43;6.88;;;4.18;;
40248;SDS011;25969;49.970;11.062;2023-04-24T18:02:43;13.77;;;6.47;;
40248;SDS011;25969;49.970;11.062;2023-04-24T18:12:45;33.33;;;22.47;;
40248;SDS011;25969;49.970;11.062;2023-04-24T18:22:47;22.60;;;12.10;;
40248;SDS011;25969;49.970;11.062;2023-04-24T18:32:48;11.85;;;7.38;;
40248;SDS011;25969;49.970;11.062;2023-04-24T18:42:49;6.75;;;3.50;;
40248;SDS011;25969;49.970;11.062;2023-04-24T18:52:50;6.27;;;3.00;;
40248;SDS011;25969;49.970;11.062;2023-04-24T19:02:51;6.37;;;3.17;;
40248;SDS011;25969;49.970;11.062;2023-04-24T19:12:52;6.03;;;3.20;;
40248;SDS011;25969;49.970;11.062;2023-04-24T19:22:56;8.83;;;3.47;;
40248;SDS011;25969;49.970;11.062;2023-04-24T19:32:57;8.17;;;4.10;;
40248;SDS011;25969;49.970;11.062;2023-04-24T19:42:58;6.30;;;3.92;;
40248;SDS011;25969;49.970;11.062;2023-04-24T19:52:58;10.98;;;4.38;;
40248;SDS011;25969;49.970;11.062;2023-04-24T20:02:59;8.00;;;4.10;;
40248;SDS011;25969;49.970;11.062;2023-04-24T20:23:02;5.78;;;3.15;;
40248;SDS011;25969;49.970;11.062;2023-04-24T20:33:04;6.15;;;4.18;;
40248;SDS011;25969;49.970;11.062;2023-04-24T20:43:05;4.90;;;3.65;;
40248;SDS011;25969;49.970;11.062;2023-04-24T20:53:06;6.80;;;4.05;;
40248;SDS011;25969;49.970;11.062;2023-04-24T21:03:08;6.07;;;3.83;;
40248;SDS011;25969;49.970;11.062;2023-04-24T21:13:09;5.70;;;3.90;;
40248;SDS011;25969;49.970;11.062;2023-04-24T21:23:10;6.85;;;3.75;;
40248;SDS011;25969;49.970;11.062;2023-04-24T21:33:10;6.20;;;3.80;;
40248;SDS011;25969;49.970;11.062;2023-04-24T21:43:11;5.25;;;3.65;;
40248;SDS011;25969;49.970;11.062;2023-04-24T21:53:12;7.30;;;3.90;;
